Time;durP1;ratioP1;P1;durP2;ratioP2;P2;SDS_P1;SDS_P2;PMS_P1;PMS_P2;Temp;Humidity;BMP_temperature;BMP_pressure;BME280_temperature;BME280_humidity;BME280_pressure;Samples;Min_cycle;Max_cycle;Signal;HPM_P1;HPM_P2
2023/07/21 00:01:43;;;;;;;5.03;3.40;;;;;;;22.91;42.89;98711.22;5065997;28;20048;-70
2023/07/21 00:04:10;;;;;;;4.90;3.35;;;;;;;22.87;42.84;98706.38;5048279;28;20052;-70
2023/07/21 00:06:37;;;;;;;4.72;3.05;;;;;;;22.92;42.75;98712.06;5065642;28;20045;-70
2023/07/21 00:09:06;;;;;;;5.07;3.08;;;;;;;22.59;42.61;98644.75;5065690;28;20311;-70
2023/07/21 00:11:34;;;;;;;4.95;2.72;;;;;;;22.83;42.79;98705.03;5048252;28;20049;-70
2023/07/21 00:14:01;;;;;;;4.28;2.85;;;;;;;22.72;42.72;98684.69;5049086;28;20273;-69
2023/07/21 00:16:29;;;;;;;5.18;2.80;;;;;;;22.74;42.25;98679.94;5065941;28;20142;-69
2023/07/21 00:18:56;;;;;;;5.07;2.90;;;;;;;22.87;42.21;98698.25;5048345;28;20059;-70
2023/07/21 00:21:24;;;;;;;3.90;2.95;;;;;;;22.72;42.96;98695.47;5065999;28;20200;-70
2023/07/21 00:23:51;;;;;;;4.57;3.10;;;;;;;22.67;43.18;98698.72;5065599;28;20049;-70
2023/07/21 00:26:19;;;;;;;4.22;2.90;;;;;;;22.47;42.59;98656.94;5065406;28;20266;-70
2023/07/21 00:28:47;;;;;;;5.30;2.60;;;;;;;22.59;42.61;98687.97;5065645;28;20116;-70
2023/07/21 00:31:14;;;;;;;5.32;2.97;;;;;;;22.74;42.37;98723.16;5065565;28;20104;-70
2023/07/21 00:33:41;;;;;;;6.72;2.80;;;;;;;22.49;42.33;98679.22;5065782;28;20052;-70
2023/07/21 00:36:12;;;;;;;7.95;3.28;;;;;;;22.69;42.55;98714.75;5065361;28;20204;-70
2023/07/21 00:38:40;;;;;;;5.45;3.80;;;;;;;22.71;42.62;98713.53;5065789;28;20233;-70
2023/07/21 00:41:07;;;;;;;5.13;3.72;;;;;;;22.70;42.72;98706.47;5031507;28;20048;-69
2023/07/21 00:43:33;;;;;;;4.32;3.40;;;;;;;22.69;42.57;98703.94;5047805;28;20055;-68
2023/07/21 00:46:02;;;;;;;4.95;3.70;;;;;;;22.57;43.30;98703.50;5065495;28;20041;-69
2023/07/21 00:48:29;;;;;;;4.80;3.40;;;;;;;22.34;43.21;98643.16;5065501;28;20098;-69
2023/07/21 00:50:55;;;;;;;5.75;3.38;;;;;;;22.55;43.47;98692.03;5065521;28;20075;-69
2023/07/21 00:53:22;;;;;;;4.45;2.60;;;;;;;22.61;43.73;98688.63;5069273;28;20323;-69
2023/07/21 00:55:50;;;;;;;3.40;2.40;;;;;;;22.66;43.19;98686.22;5069877;28;20049;-69
2023/07/21 00:58:19;;;;;;;3.67;2.50;;;;;;;22.52;43.33;98686.13;5069819;28;20048;-69
2023/07/21 01:00:46;;;;;;;3.30;2.65;;;;;;;22.60;43.69;98692.34;5069690;28;20041;-70
2023/07/21 01:03:16;;;;;;;4.65;2.45;;;;;;;22.54;44.25;98693.06;5069477;28;20045;-71
2023/07/21 01:05:49;;;;;;;5.40;2.60;;;;;;;22.52;44.18;98686.94;5069414;28;20047;-71
2023/07/21 01:08:17;;;;;;;3.00;2.30;;;;;;;22.44;44.08;98688.84;5051558;28;20053;-70
2023/07/21 01:10:45;;;;;;;5.85;2.80;;;;;;;22.49;43.76;98697.25;5069359;28;20051;-71
2023/07/21 01:13:13;;;;;;;3.85;2.47;;;;;;;22.43;43.99;98688.00;5068969;28;20056;-71
2023/07/21 01:15:45;;;;;;;4.68;2.50;;;;;;;22.45;43.60;98688.69;5069211;28;20307;-70
2023/07/21 01:18:15;;;;;;;4.10;2.65;;;;;;;22.38;43.51;98672.31;5068948;28;20041;-70
2023/07/21 01:20:43;;;;;;;5.55;2.45;;;;;;;21.83;43.35;98602.22;5068823;28;20205;-70
2023/07/21 01:23:18;;;;;;;3.78;2.28;;;;;;;22.39;43.42;98674.00;5068895;28;20208;-71
2023/07/21 01:25:48;;;;;;;3.38;2.47;;;;;;;22.26;43.16;98659.38;5051110;28;20053;-70
2023/07/21 01:28:16;;;;;;;3.90;2.50;;;;;;;22.31;43.60;98676.72;5051068;28;20347;-71
2023/07/21 01:30:46;;;;;;;3.67;2.42;;;;;;;22.29;43.81;98686.84;5068809;28;20051;-70
2023/07/21 01:33:14;;;;;;;3.42;2.40;;;;;;;22.30;43.73;98679.59;5068542;28;20423;-69
2023/07/21 01:35:42;;;;;;;5.10;2.63;;;;;;;22.22;44.07;98679.63;5051113;28;20115;-70
2023/07/21 01:38:13;;;;;;;5.20;3.05;;;;;;;22.25;43.85;98684.69;5051420;28;20037;-70
2023/07/21 01:40:40;;;;;;;4.80;2.80;;;;;;;22.19;43.74;98674.59;5068939;28;20053;-70
2023/07/21 01:43:08;;;;;;;4.70;2.63;;;;;;;22.14;43.90;98685.91;5068951;28;20144;-70
2023/07/21 01:45:35;;;;;;;3.50;2.72;;;;;;;22.03;44.07;98659.31;5068669;28;20276;-70
2023/07/21 01:48:02;;;;;;;4.85;2.40;;;;;;;22.09;44.08;98690.97;5050828;28;20045;-69
2023/07/21 01:50:30;;;;;;;3.50;2.38;;;;;;;21.56;44.16;98611.53;5068574;28;20251;-70
2023/07/21 01:53:01;;;;;;;4.55;2.90;;;;;;;22.01;44.00;98691.84;5068531;28;20051;-69
2023/07/21 01:55:34;;;;;;;3.47;2.58;;;;;;;21.47;43.85;98612.56;5068168;28;20132;-69
2023/07/21 01:58:04;;;;;;;3.90;2.57;;;;;;;22.02;44.11;98692.69;5068756;28;20033;-70
2023/07/21 02:00:38;;;;;;;5.47;2.70;;;;;;;21.82;44.20;98653.63;5068240;28;20053;-70
2023/07/21 02:03:05;;;;;;;4.00;2.47;;;;;;;21.99;44.14;98680.41;5050336;28;20055;-70
2023/07/21 02:05:33;;;;;;;3.33;2.42;;;;;;;21.97;44.38;98686.97;5068587;28;20057;-70
2023/07/21 02:08:00;;;;;;;6.40;2.70;;;;;;;21.99;44.30;98687.66;5068208;28;20056;-69
2023/07/21 02:10:27;;;;;;;4.68;3.10;;;;;;;21.92;44.19;98692.03;5068231;28;20057;-70
2023/07/21 02:12:53;;;;;;;3.63;2.30;;;;;;;21.95;44.33;98695.25;5068278;28;20049;-70
2023/07/21 02:15:20;;;;;;;4.53;2.38;;;;;;;21.90;44.27;98703.00;5050409;28;20086;-70
2023/07/21 02:17:48;;;;;;;3.45;2.70;;;;;;;21.87;44.37;98700.66;5068399;28;20300;-70
2023/07/21 02:20:15;;;;;;;3.67;2.38;;;;;;;21.90;44.20;98692.22;5068301;28;20098;-70
2023/07/21 02:22:43;;;;;;;3.17;2.33;;;;;;;21.81;44.96;98697.81;5067734;28;20037;-69
2023/07/21 02:25:10;;;;;;;5.07;2.40;;;;;;;21.45;45.14;98650.47;5067919;28;20292;-69
2023/07/21 02:27:37;;;;;;;4.57;2.80;;;;;;;21.62;45.37;98669.31;5067889;28;20057;-70
2023/07/21 02:30:06;;;;;;;3.50;2.53;;;;;;;21.69;45.51;98700.81;5067857;28;20108;-71
2023/07/21 02:32:33;;;;;;;4.72;2.55;;;;;;;21.57;45.12;98669.84;5067802;28;20051;-71
2023/07/21 02:35:01;;;;;;;4.65;3.08;;;;;;;21.29;44.85;98610.06;5067893;28;20040;-71
2023/07/21 02:37:28;;;;;;;3.88;2.40;;;;;;;21.55;45.06;98666.47;5067461;28;20189;-70
2023/07/21 02:39:55;;;;;;;4.22;2.58;;;;;;;21.74;44.86;98686.84;5049983;28;20041;-70
2023/07/21 02:42:22;;;;;;;3.55;2.70;;;;;;;21.73;44.68;98683.28;5067293;28;20104;-70
2023/07/21 02:44:49;;;;;;;3.92;2.38;;;;;;;21.69;44.54;98689.19;5049823;28;20243;-70
2023/07/21 02:47:17;;;;;;;5.25;2.85;;;;;;;21.73;44.49;98680.59;5050030;28;20053;-70
2023/07/21 02:49:44;;;;;;;6.57;2.50;;;;;;;21.75;44.77;98665.09;5049995;28;20124;-70
2023/07/21 02:52:12;;;;;;;3.85;2.67;;;;;;;21.65;45.53;98668.97;5067675;28;20036;-70
2023/07/21 02:54:39;;;;;;;3.30;2.45;;;;;;;21.67;45.65;98675.03;5049660;28;20041;-71
2023/07/21 02:57:06;;;;;;;4.15;2.80;;;;;;;21.69;45.19;98675.72;5067304;28;20048;-71
2023/07/21 02:59:34;;;;;;;4.53;3.00;;;;;;;21.59;45.40;98669.66;5067270;28;20170;-70
2023/07/21 03:02:01;;;;;;;3.55;2.45;;;;;;;21.64;45.52;98670.84;5049422;28;20143;-71
2023/07/21 03:04:28;;;;;;;5.32;2.92;;;;;;;21.67;45.07;98681.28;5067390;28;20049;-71
2023/07/21 03:06:55;;;;;;;3.35;2.47;;;;;;;21.70;44.78;98669.31;5066875;28;20247;-71
2023/07/21 03:09:24;;;;;;;5.03;2.42;;;;;;;21.64;45.07;98676.22;5066797;28;20106;-70
2023/07/21 03:11:51;;;;;;;3.75;2.50;;;;;;;21.66;45.01;98684.16;5049258;28;20040;-70
2023/07/21 03:14:17;;;;;;;3.83;2.97;;;;;;;21.66;44.81;98681.44;5066021;28;20045;-70
2023/07/21 03:16:44;;;;;;;4.40;3.17;;;;;;;21.44;45.08;98643.41;5066624;28;20087;-70
2023/07/21 03:19:11;;;;;;;4.63;3.20;;;;;;;21.59;45.35;98672.38;5066863;28;20304;-70
2023/07/21 03:21:38;;;;;;;5.00;2.63;;;;;;;21.31;44.96;98604.50;5066714;28;20091;-69
2023/07/21 03:24:07;;;;;;;3.90;2.75;;;;;;;21.50;45.42;98639.19;5066444;28;20053;-70
2023/07/21 03:26:35;;;;;;;3.78;3.05;;;;;;;21.56;46.31;98656.53;5066207;28;20174;-70
2023/07/21 03:29:02;;;;;;;4.82;3.03;;;;;;;21.48;46.17;98660.09;5066404;28;20041;-70
2023/07/21 03:31:28;;;;;;;9.05;3.80;;;;;;;21.50;46.27;98658.06;5048799;28;20288;-70
2023/07/21 03:33:55;;;;;;;7.30;3.13;;;;;;;21.57;45.75;98658.22;5048770;28;20123;-71
2023/07/21 03:36:22;;;;;;;4.95;2.80;;;;;;;21.27;46.05;98598.63;5066433;28;20048;-70
2023/07/21 03:38:48;;;;;;;4.28;2.70;;;;;;;21.60;46.16;98655.19;5066411;28;20053;-70
2023/07/21 03:41:16;;;;;;;4.90;2.97;;;;;;;21.61;45.98;98657.69;5048807;28;20041;-70
2023/07/21 03:43:44;;;;;;;7.22;3.45;;;;;;;21.57;46.12;98640.19;5048843;28;20091;-70
2023/07/21 03:46:11;;;;;;;3.67;2.63;;;;;;;21.56;46.14;98657.38;5066208;28;20048;-70
2023/07/21 03:48:38;;;;;;;4.22;2.58;;;;;;;21.08;45.97;98585.50;5065829;28;20064;-69
2023/07/21 03:51:06;;;;;;;7.22;2.70;;;;;;;21.56;46.42;98656.53;5066097;28;20041;-70
2023/07/21 03:53:33;;;;;;;5.18;2.95;;;;;;;21.54;46.07;98666.66;5048227;28;20060;-69
2023/07/21 03:56:00;;;;;;;5.75;3.10;;;;;;;21.58;45.65;98665.28;5066209;28;20053;-70
2023/07/21 03:58:27;;;;;;;3.85;2.45;;;;;;;21.45;46.02;98655.03;5048427;28;20204;-70
2023/07/21 04:00:55;;;;;;;4.57;2.78;;;;;;;21.60;45.92;98657.88;5048367;28;20044;-70
2023/07/21 04:03:24;;;;;;;4.07;2.72;;;;;;;21.60;46.56;98658.72;5065726;28;20052;-70
2023/07/21 04:05:51;;;;;;;3.97;2.90;;;;;;;21.61;46.26;98656.84;5066113;28;20098;-70
2023/07/21 04:08:18;;;;;;;6.65;3.80;;;;;;;21.58;47.19;98658.03;5065673;28;20297;-70
2023/07/21 04:10:45;;;;;;;4.97;3.00;;;;;;;21.20;47.96;98599.47;5065662;28;20106;-71
2023/07/21 04:13:12;;;;;;;4.75;3.17;;;;;;;21.66;47.77;98665.28;5065897;28;20041;-71
2023/07/21 04:15:38;;;;;;;6.85;3.60;;;;;;;21.66;48.05;98666.13;5065608;28;20208;-71
2023/07/21 04:18:07;;;;;;;5.45;3.17;;;;;;;21.68;47.74;98660.56;5048137;28;20304;-70
2023/07/21 04:20:33;;;;;;;6.10;3.63;;;;;;;21.49;48.28;98655.53;5065828;28;20235;-71
2023/07/21 04:23:00;;;;;;;5.68;3.00;;;;;;;21.49;48.14;98636.66;5065262;28;20204;-70
2023/07/21 04:25:27;;;;;;;6.75;2.97;;;;;;;21.50;48.32;98623.00;5065514;28;20083;-70
2023/07/21 04:27:55;;;;;;;5.45;3.28;;;;;;;21.14;49.28;98612.63;5065982;28;20040;-70
2023/07/21 04:30:22;;;;;;;4.93;3.65;;;;;;;20.63;49.36;98545.59;5065901;28;20116;-71
2023/07/21 04:32:48;;;;;;;10.80;2.92;;;;;;;21.34;49.18;98645.44;5065593;28;20074;-70
2023/07/21 04:35:17;;;;;;;4.00;2.70;;;;;;;21.45;48.88;98661.25;5065645;28;20094;-71
2023/07/21 04:37:44;;;;;;;7.15;3.42;;;;;;;21.54;49.22;98664.78;5065321;28;20052;-70
2023/07/21 04:40:12;;;;;;;6.88;3.00;;;;;;;21.61;49.23;98678.44;5047785;28;20069;-70
2023/07/21 04:42:39;;;;;;;5.63;3.20;;;;;;;21.59;48.71;98661.59;5065033;28;20186;-70
2023/07/21 04:45:11;;;;;;;5.15;2.65;;;;;;;21.59;48.48;98675.06;5048587;28;20064;-70
2023/07/21 04:47:40;;;;;;;5.63;3.10;;;;;;;21.59;48.54;98673.22;5065159;28;20068;-71
2023/07/21 04:50:08;;;;;;;5.15;3.17;;;;;;;21.50;48.50;98659.91;5048815;28;20048;-70
2023/07/21 04:52:37;;;;;;;6.60;3.85;;;;;;;21.61;48.47;98654.16;5065295;28;20041;-70
2023/07/21 04:55:05;;;;;;;3.85;2.90;;;;;;;21.53;47.77;98662.25;5048593;28;20037;-70
2023/07/21 04:57:32;;;;;;;6.45;3.63;;;;;;;21.49;48.42;98666.31;5047770;28;20048;-70
2023/07/21 05:00:00;;;;;;;4.75;3.30;;;;;;;21.37;47.87;98661.28;5065428;28;20086;-70
2023/07/21 05:02:28;;;;;;;5.25;2.92;;;;;;;21.52;47.70;98674.06;5065047;28;20080;-70
2023/07/21 05:04:57;;;;;;;4.53;2.70;;;;;;;21.40;47.99;98678.97;5048749;28;20048;-70
2023/07/21 05:07:24;;;;;;;4.97;3.08;;;;;;;21.38;47.89;98676.44;5065167;28;20099;-70
2023/07/21 05:09:55;;;;;;;6.10;3.50;;;;;;;21.39;48.33;98675.41;5065594;28;20104;-70
2023/07/21 05:12:24;;;;;;;5.50;2.90;;;;;;;20.96;47.97;98587.69;5065210;28;20037;-70
2023/07/21 05:14:50;;;;;;;7.43;3.60;;;;;;;21.39;48.00;98650.31;5065190;28;20040;-70
2023/07/21 05:17:18;;;;;;;5.10;2.92;;;;;;;21.43;47.86;98665.13;5047857;28;20275;-70
2023/07/21 05:19:45;;;;;;;5.93;3.67;;;;;;;21.33;47.31;98672.56;5065227;28;20142;-70
2023/07/21 05:22:11;;;;;;;5.32;2.85;;;;;;;21.27;47.95;98684.84;5065102;28;20037;-71
2023/07/21 05:24:38;;;;;;;9.00;2.75;;;;;;;21.34;48.00;98683.19;5064739;28;20059;-70
2023/07/21 05:27:07;;;;;;;4.70;2.85;;;;;;;21.37;48.02;98700.84;5064578;28;20064;-69
2023/07/21 05:29:34;;;;;;;6.20;3.13;;;;;;;21.40;48.01;98706.75;5065031;28;20053;-70
2023/07/21 05:32:03;;;;;;;6.63;2.97;;;;;;;21.27;48.34;98684.03;5064774;28;20377;-70
2023/07/21 05:34:30;;;;;;;5.00;3.05;;;;;;;21.47;47.59;98704.22;5047277;28;20209;-70
2023/07/21 05:36:57;;;;;;;4.47;3.00;;;;;;;21.36;48.35;98701.88;5064981;28;20339;-70
2023/07/21 05:39:25;;;;;;;4.25;2.70;;;;;;;21.25;48.32;98704.91;5068949;28;20099;-70
2023/07/21 05:41:55;;;;;;;5.03;2.95;;;;;;;21.25;48.31;98670.72;5051154;28;20064;-70
2023/07/21 05:44:24;;;;;;;7.53;2.95;;;;;;;21.43;48.82;98684.00;5050885;28;20083;-70
2023/07/21 05:46:50;;;;;;;4.68;2.85;;;;;;;21.30;48.01;98645.94;5051097;28;20072;-70
2023/07/21 05:49:17;;;;;;;7.20;3.30;;;;;;;21.28;47.90;98659.59;5068673;28;20052;-70
2023/07/21 05:51:44;;;;;;;4.70;3.10;;;;;;;21.37;47.51;98633.47;5068476;28;20041;-70
2023/07/21 05:54:11;;;;;;;7.28;3.30;;;;;;;21.22;47.88;98619.84;5050737;28;20075;-70
2023/07/21 05:56:39;;;;;;;8.73;4.00;;;;;;;21.06;48.40;98601.00;5050694;28;20091;-70
2023/07/21 05:59:06;;;;;;;7.88;4.28;;;;;;;21.03;48.38;98582.47;5050992;28;20083;-70
2023/07/21 06:01:36;;;;;;;7.60;3.28;;;;;;;21.04;48.34;98579.63;5050467;28;20091;-71
2023/07/21 06:04:03;;;;;;;6.15;3.60;;;;;;;20.15;48.50;98470.03;5068108;28;20162;-70
2023/07/21 06:06:31;;;;;;;6.68;3.67;;;;;;;21.12;48.99;98619.19;5068475;28;20044;-70
2023/07/21 06:08:58;;;;;;;6.60;3.47;;;;;;;21.28;48.23;98651.50;5051063;28;20208;-70
2023/07/21 06:11:26;;;;;;;5.00;3.88;;;;;;;21.41;48.61;98669.88;5068167;28;20152;-69
2023/07/21 06:13:53;;;;;;;7.70;3.92;;;;;;;21.43;48.50;98668.69;5068079;28;20212;-70
2023/07/21 06:16:22;;;;;;;6.32;3.17;;;;;;;21.49;48.19;98669.84;5067740;28;20045;-71
2023/07/21 06:18:51;;;;;;;5.35;3.05;;;;;;;21.32;48.46;98657.41;5050746;28;20095;-71
2023/07/21 06:21:19;;;;;;;5.90;3.28;;;;;;;21.36;48.48;98673.06;5067635;28;20366;-70
2023/07/21 06:23:47;;;;;;;7.50;3.58;;;;;;;21.40;48.61;98671.72;5067412;28;20067;-71
2023/07/21 06:26:13;;;;;;;6.65;3.15;;;;;;;21.49;48.34;98671.72;5067618;28;20045;-70
2023/07/21 06:28:41;;;;;;;6.25;3.60;;;;;;;21.37;48.43;98663.97;5067523;28;20083;-70
2023/07/21 06:31:09;;;;;;;4.90;3.30;;;;;;;21.50;48.68;98657.22;5067476;28;20049;-70
2023/07/21 06:33:36;;;;;;;7.50;3.30;;;;;;;21.52;48.90;98668.66;5067706;28;20041;-70
2023/07/21 06:36:04;;;;;;;5.38;3.85;;;;;;;21.47;48.81;98661.09;5067420;28;20045;-70
2023/07/21 06:38:31;;;;;;;9.45;3.42;;;;;;;21.52;48.57;98671.38;5067554;28;20049;-70
2023/07/21 06:40:58;;;;;;;8.85;3.67;;;;;;;21.37;48.17;98663.97;5050058;28;20100;-70
2023/07/21 06:43:24;;;;;;;6.70;3.80;;;;;;;21.43;48.22;98663.28;5050571;28;20037;-70
2023/07/21 06:45:51;;;;;;;5.63;3.50;;;;;;;21.44;48.33;98667.66;5067470;28;20304;-70
2023/07/21 06:48:18;;;;;;;6.38;3.60;;;;;;;20.90;48.38;98555.19;5067118;28;20086;-69
2023/07/21 06:50:45;;;;;;;6.22;3.35;;;;;;;21.52;48.51;98641.72;5049876;28;20116;-70
2023/07/21 06:53:13;;;;;;;5.47;3.28;;;;;;;21.56;48.29;98641.19;5050324;28;20087;-71
2023/07/21 06:55:39;;;;;;;7.57;3.53;;;;;;;21.57;48.61;98636.66;5067450;28;20331;-70
2023/07/21 06:58:08;;;;;;;8.00;3.83;;;;;;;21.50;48.74;98638.34;5049438;28;20119;-70
2023/07/21 07:00:35;;;;;;;8.93;4.20;;;;;;;21.36;48.77;98640.72;5066984;28;20064;-70
2023/07/21 07:03:02;;;;;;;6.10;2.88;;;;;;;21.28;48.99;98631.81;5049246;28;20033;-70
2023/07/21 07:05:29;;;;;;;6.25;3.72;;;;;;;21.31;48.84;98610.75;5066858;28;20315;-70
2023/07/21 07:07:56;;;;;;;6.30;3.65;;;;;;;21.41;49.02;98626.72;5050021;28;20115;-69
2023/07/21 07:10:24;;;;;;;6.35;3.55;;;;;;;21.28;48.60;98608.38;5066956;28;20236;-70
2023/07/21 07:12:51;;;;;;;7.50;3.78;;;;;;;21.43;49.00;98630.09;5066812;28;20091;-70
2023/07/21 07:15:18;;;;;;;6.38;3.58;;;;;;;21.34;48.17;98637.34;5049099;28;20053;-70
2023/07/21 07:17:45;;;;;;;5.85;3.33;;;;;;;21.31;47.91;98639.53;5067169;28;20049;-69
2023/07/21 07:20:12;;;;;;;5.05;3.08;;;;;;;21.13;48.02;98602.84;5049111;28;20041;-70
2023/07/21 07:22:39;;;;;;;6.03;3.88;;;;;;;21.21;48.12;98639.72;5049009;28;20067;-70
2023/07/21 07:25:07;;;;;;;4.65;3.28;;;;;;;21.37;47.99;98628.09;5066416;28;20045;-70
2023/07/21 07:27:35;;;;;;;5.78;3.47;;;;;;;21.31;47.78;98612.59;5065990;28;20059;-70
2023/07/21 07:30:03;;;;;;;7.43;3.28;;;;;;;21.46;47.56;98632.44;5066498;28;20154;-69
2023/07/21 07:32:30;;;;;;;6.47;3.55;;;;;;;21.45;47.66;98650.47;5048770;28;20071;-69
2023/07/21 07:34:58;;;;;;;7.35;3.95;;;;;;;21.23;47.92;98608.06;5066461;28;20339;-70
2023/07/21 07:37:26;;;;;;;10.95;3.30;;;;;;;21.26;47.66;98613.13;5051424;28;20087;-70
2023/07/21 07:39:53;;;;;;;5.40;3.30;;;;;;;21.56;47.42;98649.28;5059794;28;20056;-71
2023/07/21 07:42:22;;;;;;;4.60;3.67;;;;;;;21.58;47.96;98649.13;5059490;28;20036;-70
2023/07/21 07:44:55;;;;;;;5.88;2.90;;;;;;;21.55;47.71;98638.66;5066819;28;20079;-70
2023/07/21 07:47:23;;;;;;;5.78;3.40;;;;;;;21.41;48.18;98622.19;5066105;28;20098;-70
2023/07/21 07:49:50;;;;;;;4.53;3.38;;;;;;;21.56;47.56;98649.28;5065902;28;20089;-70
2023/07/21 07:52:18;;;;;;;5.75;3.75;;;;;;;21.49;47.70;98625.88;5066285;28;20037;-70
2023/07/21 07:54:45;;;;;;;4.95;3.30;;;;;;;21.57;47.71;98618.63;5048538;28;20041;-69
2023/07/21 07:57:12;;;;;;;6.43;3.90;;;;;;;21.52;47.68;98612.06;5066240;28;20072;-69
2023/07/21 07:59:38;;;;;;;5.45;3.20;;;;;;;21.48;47.98;98594.53;5065804;28;20044;-70
2023/07/21 08:02:07;;;;;;;6.85;3.97;;;;;;;21.50;47.90;98589.81;5065445;28;20299;-69
2023/07/21 08:04:33;;;;;;;7.53;3.70;;;;;;;21.48;48.05;98581.91;5065966;28;20296;-70
2023/07/21 08:07:00;;;;;;;6.80;3.60;;;;;;;21.49;48.14;98571.97;5065976;28;20048;-68
2023/07/21 08:09:27;;;;;;;5.45;3.40;;;;;;;21.57;47.89;98556.59;5065975;28;20040;-68
2023/07/21 08:11:54;;;;;;;6.18;3.55;;;;;;;21.52;48.32;98550.06;5065988;28;20044;-69
2023/07/21 08:14:21;;;;;;;6.63;3.67;;;;;;;21.48;48.26;98543.31;5065938;28;20037;-69
2023/07/21 08:16:48;;;;;;;7.95;3.35;;;;;;;21.43;48.42;98533.91;5065865;28;20306;-69
2023/07/21 08:19:16;;;;;;;7.63;3.58;;;;;;;21.49;48.80;98532.38;5065737;28;20052;-69
2023/07/21 08:21:43;;;;;;;6.32;3.28;;;;;;;21.04;48.88;98462.94;5065779;28;20067;-69
2023/07/21 08:24:10;;;;;;;7.40;3.45;;;;;;;21.41;49.01;98538.63;5065323;28;20053;-69
2023/07/21 08:26:36;;;;;;;7.60;3.50;;;;;;;21.40;49.42;98539.63;5047927;28;20136;-69
2023/07/21 08:29:07;;;;;;;5.18;3.47;;;;;;;21.40;49.51;98555.81;5065378;28;20358;-70
2023/07/21 08:31:33;;;;;;;7.65;3.28;;;;;;;21.39;49.72;98556.81;5065468;28;20044;-69
2023/07/21 08:34:00;;;;;;;10.25;3.78;;;;;;;21.37;49.97;98558.84;5065300;28;20071;-69
2023/07/21 08:36:28;;;;;;;8.60;3.88;;;;;;;21.24;49.83;98533.44;5065612;28;20059;-69
2023/07/21 08:38:55;;;;;;;14.65;4.43;;;;;;;21.47;49.77;98572.13;5047976;28;20103;-71
2023/07/21 08:41:24;;;;;;;10.93;4.03;;;;;;;21.39;50.26;98575.69;5065265;28;20071;-68
2023/07/21 08:43:51;;;;;;;6.05;3.67;;;;;;;21.06;50.54;98530.97;5047656;28;20060;-69
2023/07/21 08:46:17;;;;;;;8.15;3.83;;;;;;;21.32;50.59;98580.09;5065255;28;20285;-69
2023/07/21 08:48:44;;;;;;;7.18;3.20;;;;;;;21.33;50.78;98580.94;5065197;28;20053;-69
2023/07/21 08:51:12;;;;;;;6.53;4.13;;;;;;;20.42;50.58;98415.06;5047570;28;20082;-70
2023/07/21 08:53:41;;;;;;;6.88;3.63;;;;;;;21.46;50.93;98583.94;5065677;28;20037;-70
2023/07/21 08:56:09;;;;;;;17.38;4.03;;;;;;;21.39;51.12;98586.47;5048089;28;20045;-68
2023/07/21 08:58:36;;;;;;;7.40;3.50;;;;;;;21.38;51.05;98600.97;5065559;28;20086;-68
2023/07/21 09:01:05;;;;;;;6.60;3.67;;;;;;;21.34;51.56;98620.34;5065723;28;20235;-69
2023/07/21 09:03:31;;;;;;;8.90;3.58;;;;;;;21.21;52.25;98620.88;5065036;28;20049;-68
2023/07/21 09:06:00;;;;;;;5.47;3.40;;;;;;;20.82;52.77;98562.25;5065752;28;20327;-69
2023/07/21 09:08:28;;;;;;;6.85;3.70;;;;;;;21.31;52.22;98605.34;5065318;28;20037;-68
2023/07/21 09:11:00;;;;;;;8.18;4.15;;;;;;;21.38;52.72;98611.75;5047745;28;20044;-68
2023/07/21 09:13:27;;;;;;;5.03;3.40;;;;;;;21.41;52.59;98614.09;5068016;28;20059;-69
2023/07/21 09:15:56;;;;;;;6.13;4.40;;;;;;;21.40;52.73;98608.88;5069105;28;20285;-70
2023/07/21 09:18:27;;;;;;;7.72;4.10;;;;;;;21.34;53.05;98614.94;5069253;28;20075;-70
2023/07/21 09:20:54;;;;;;;6.28;4.10;;;;;;;21.42;53.37;98615.78;5051404;28;20040;-71
2023/07/21 09:23:21;;;;;;;6.72;3.83;;;;;;;21.47;53.44;98609.88;5068573;28;20045;-68
2023/07/21 09:25:53;;;;;;;8.27;4.03;;;;;;;21.41;53.32;98602.47;5068679;28;20056;-68
2023/07/21 09:28:22;;;;;;;9.00;4.38;;;;;;;21.52;53.61;98606.66;5068427;28;20045;-69
2023/07/21 09:30:51;;;;;;;7.82;4.15;;;;;;;21.67;52.56;98605.78;5051956;28;20314;-68
2023/07/21 09:33:23;;;;;;;4.63;4.03;;;;;;;21.74;52.33;98595.97;5051103;28;20037;-68
2023/07/21 09:35:50;;;;;;;5.25;3.63;;;;;;;21.60;52.00;98556.25;5069127;28;20125;-67
2023/07/21 09:38:17;;;;;;;6.88;4.05;;;;;;;21.87;52.13;98590.06;5051299;28;20376;-69
2023/07/21 09:40:44;;;;;;;7.05;3.85;;;;;;;21.95;52.02;98581.09;5068385;28;20040;-68
2023/07/21 09:43:11;;;;;;;7.22;3.88;;;;;;;22.00;51.65;98579.56;5068689;28;20052;-69
2023/07/21 09:45:40;;;;;;;5.05;3.30;;;;;;;22.12;51.67;98581.84;5068697;28;20079;-69
2023/07/21 09:48:09;;;;;;;4.65;3.70;;;;;;;22.12;51.27;98579.16;5068707;28;20293;-69
2023/07/21 09:50:36;;;;;;;7.53;3.72;;;;;;;22.16;51.64;98581.31;5068868;28;20063;-69
2023/07/21 09:53:04;;;;;;;5.95;3.30;;;;;;;22.20;51.28;98576.41;5068554;28;20120;-69
2023/07/21 09:55:40;;;;;;;6.25;3.58;;;;;;;22.29;51.43;98569.97;5050565;28;20045;-70
2023/07/21 09:58:10;;;;;;;6.63;3.95;;;;;;;22.29;51.45;98573.50;5068106;28;20098;-69
2023/07/21 10:00:40;;;;;;;6.97;4.15;;;;;;;22.29;50.82;98567.25;5068115;28;20045;-69
2023/07/21 10:03:08;;;;;;;4.97;3.50;;;;;;;22.42;51.00;98564.84;5068285;28;20103;-70
2023/07/21 10:05:38;;;;;;;5.47;3.85;;;;;;;22.45;51.26;98564.47;5068144;28;20041;-69
2023/07/21 10:08:06;;;;;;;6.70;4.28;;;;;;;22.45;51.55;98564.47;5050361;28;20272;-70
2023/07/21 10:10:33;;;;;;;5.82;3.85;;;;;;;22.51;51.25;98576.44;5050369;28;20045;-70
2023/07/21 10:13:07;;;;;;;5.78;3.78;;;;;;;22.57;51.18;98573.88;5067984;28;20107;-69
2023/07/21 10:15:34;;;;;;;6.17;3.90;;;;;;;22.60;51.29;98569.97;5050276;28;20055;-70
2023/07/21 10:18:06;;;;;;;5.18;3.83;;;;;;;22.62;51.28;98540.94;5068029;28;20044;-70
2023/07/21 10:20:44;;;;;;;5.30;3.67;;;;;;;22.83;50.68;98570.81;5068149;28;20063;-70
2023/07/21 10:23:13;;;;;;;5.00;3.67;;;;;;;22.83;50.73;98564.56;5067106;28;20049;-69
2023/07/21 10:25:56;;;;;;;6.30;4.00;;;;;;;22.90;50.55;98557.41;5050986;28;20060;-68
2023/07/21 10:28:25;;;;;;;5.25;4.00;;;;;;;22.98;50.27;98557.34;5067326;28;20128;-68
2023/07/21 10:30:52;;;;;;;4.68;3.63;;;;;;;22.97;50.45;98551.09;5067639;28;20076;-68
2023/07/21 10:33:21;;;;;;;5.10;3.70;;;;;;;23.03;50.35;98555.78;5067353;28;20045;-68
2023/07/21 10:35:49;;;;;;;4.90;3.20;;;;;;;22.87;50.48;98509.16;5049970;28;20323;-69
2023/07/21 10:38:24;;;;;;;4.90;3.92;;;;;;;23.14;50.45;98540.97;5067953;28;20049;-68
2023/07/21 10:40:51;;;;;;;7.15;3.20;;;;;;;23.17;49.74;98534.34;5067568;28;20188;-69
2023/07/21 10:43:18;;;;;;;5.05;3.35;;;;;;;23.18;49.39;98536.88;5049974;28;20049;-68
2023/07/21 10:45:53;;;;;;;7.30;2.85;;;;;;;23.21;49.41;98541.91;5067657;28;20243;-68
2023/07/21 10:48:25;;;;;;;6.75;3.55;;;;;;;23.18;49.57;98541.44;5049648;28;20098;-68
2023/07/21 10:50:56;;;;;;;4.88;3.33;;;;;;;23.17;49.60;98542.47;5067405;28;20045;-68
2023/07/21 10:53:23;;;;;;;5.18;3.58;;;;;;;22.63;50.04;98453.50;5049416;28;20083;-68
2023/07/21 10:55:52;;;;;;;4.97;3.05;;;;;;;23.15;50.19;98539.94;5067022;28;20048;-68
2023/07/21 10:58:19;;;;;;;3.90;3.15;;;;;;;23.16;50.51;98533.53;5050290;28;20280;-69
2023/07/21 11:00:48;;;;;;;5.50;3.72;;;;;;;23.15;50.68;98542.66;5067393;28;20059;-69
2023/07/21 11:03:15;;;;;;;5.75;3.63;;;;;;;23.14;50.87;98540.97;5049388;28;20056;-70
2023/07/21 11:05:43;;;;;;;5.22;3.67;;;;;;;23.16;51.20;98540.78;5067128;28;20045;-69
2023/07/21 11:08:14;;;;;;;6.20;3.45;;;;;;;23.16;51.57;98536.22;5067288;28;20297;-69
2023/07/21 11:10:41;;;;;;;6.35;3.28;;;;;;;23.13;51.96;98533.88;5066667;28;20037;-69
2023/07/21 11:13:07;;;;;;;6.43;3.65;;;;;;;23.01;52.03;98505.63;5067264;28;20040;-69
2023/07/21 11:15:36;;;;;;;4.65;3.53;;;;;;;22.86;52.71;98480.47;5067395;28;20187;-70
2023/07/21 11:18:03;;;;;;;4.50;3.60;;;;;;;23.13;53.35;98530.34;5066677;28;20041;-69
2023/07/21 11:20:30;;;;;;;5.82;3.42;;;;;;;23.13;54.55;98519.53;5066424;28;20103;-70
2023/07/21 11:22:59;;;;;;;5.55;3.58;;;;;;;23.20;55.16;98526.72;5049457;28;20186;-70
2023/07/21 11:25:26;;;;;;;4.78;3.70;;;;;;;23.29;54.76;98532.91;5066589;28;20307;-70
2023/07/21 11:27:53;;;;;;;4.47;3.90;;;;;;;23.12;54.87;98496.25;5066597;28;20037;-70
2023/07/21 11:30:20;;;;;;;7.72;3.83;;;;;;;23.32;54.35;98516.31;5066644;28;20044;-71
2023/07/21 11:32:47;;;;;;;4.22;3.30;;;;;;;23.35;54.36;98505.97;5066355;28;20044;-71
2023/07/21 11:35:14;;;;;;;3.80;2.90;;;;;;;23.39;53.73;98492.91;5065273;28;20174;-70
2023/07/21 11:37:42;;;;;;;4.30;3.42;;;;;;;23.46;53.61;98509.22;5049678;28;20041;-70